Time,TemperatureF,DewpointF,PressureIn,WindDirection,WindDirectionDegrees,WindSpeedMPH,WindSpeedGustMPH,Humidity,HourlyPrecipIn,Conditions,Clouds,dailyrainin,SoftwareType,DateUTC
2013-08-09 00:01:00,59.4,55.2,29.91,SW,225,4.0,4.0,86,0.00,,,0.00,meteohub,2013-08-09 05:01:00,
2013-08-09 00:06:00,59.4,55.2,29.91,SW,225,4.0,4.0,86,0.00,,,0.00,meteohub,2013-08-09 05:06:00,
2013-08-09 00:11:00,59.2,55.0,29.91,SW,225,4.0,4.0,86,0.00,,,0.00,meteohub,2013-08-09 05:11:00,
2013-08-09 00:16:00,59.2,55.0,29.91,SW,225,3.0,4.0,86,0.00,,,0.00,meteohub,2013-08-09 05:16:00,
2013-08-09 00:21:00,59.2,55.0,29.91,West,270,3.0,4.0,86,0.00,,,0.00,meteohub,2013-08-09 05:21:00,
2013-08-09 00:26:00,59.4,55.2,29.91,West,270,2.0,4.0,86,0.00,,,0.00,meteohub,2013-08-09 05:26:00,
2013-08-09 00:31:00,59.4,55.2,29.91,West,270,3.0,4.0,86,0.00,,,0.00,meteohub,2013-08-09 05:31:00,
2013-08-09 00:36:00,59.5,55.6,29.91,West,270,2.0,3.0,87,0.00,,,0.00,meteohub,2013-08-09 05:36:00,
2013-08-09 00:41:00,59.9,55.9,29.91,West,270,2.0,3.0,87,0.00,,,0.00,meteohub,2013-08-09 05:41:00,
2013-08-09 00:46:00,60.3,56.3,29.91,West,270,2.0,3.0,87,0.00,,,0.00,meteohub,2013-08-09 05:46:00,
2013-08-09 00:52:00,60.4,56.5,29.91,West,270,2.0,3.0,87,0.00,,,0.00,meteohub,2013-08-09 05:52:00,
2013-08-09 00:57:00,60.3,56.3,29.91,West,270,2.0,2.0,87,0.00,,,0.00,meteohub,2013-08-09 05:57:00,
2013-08-09 01:02:00,60.1,56.1,29.91,West,270,3.0,3.0,87,0.00,,,0.00,meteohub,2013-08-09 06:02:00,
2013-08-09 01:07:00,60.1,56.5,29.91,West,270,3.0,3.0,88,0.00,,,0.00,meteohub,2013-08-09 06:07:00,
2013-08-09 01:12:00,59.9,56.3,29.91,West,270,2.0,3.0,88,0.00,,,0.00,meteohub,2013-08-09 06:12:00,
2013-08-09 01:17:00,59.7,56.1,29.91,SW,225,2.0,3.0,88,0.00,,,0.00,meteohub,2013-08-09 06:17:00,
2013-08-09 01:22:00,59.4,55.8,29.91,SW,225,2.0,3.0,88,0.00,,,0.00,meteohub,2013-08-09 06:22:00,
2013-08-09 01:27:00,59.0,55.2,29.92,SW,225,3.0,3.0,87,0.00,,,0.00,meteohub,2013-08-09 06:27:00,
2013-08-09 01:32:00,58.5,54.9,29.91,SW,225,3.0,3.0,88,0.00,,,0.00,meteohub,2013-08-09 06:32:00,
2013-08-09 01:37:00,58.3,54.7,29.91,West,270,2.0,3.0,88,0.00,,,0.00,meteohub,2013-08-09 06:37:00,
2013-08-09 01:43:00,58.1,54.9,29.92,SW,225,2.0,3.0,89,0.00,,,0.00,meteohub,2013-08-09 06:43:00,
2013-08-09 01:48:00,57.7,54.1,29.92,West,270,4.0,4.0,88,0.00,,,0.00,meteohub,2013-08-09 06:48:00,
2013-08-09 01:53:00,57.6,54.0,29.92,SW,225,4.0,4.0,88,0.00,,,0.00,meteohub,2013-08-09 06:53:00,
2013-08-09 01:58:00,57.4,54.1,29.91,West,270,4.0,4.0,89,0.00,,,0.00,meteohub,2013-08-09 06:58:00,
2013-08-09 02:03:00,57.4,54.1,29.92,West,270,5.0,5.0,89,0.00,,,0.00,meteohub,2013-08-09 07:03:00,
2013-08-09 02:08:00,57.2,54.0,29.92,West,270,4.0,4.0,89,0.00,,,0.00,meteohub,2013-08-09 07:08:00,
2013-08-09 02:13:00,57.7,54.5,29.92,West,270,4.0,5.0,89,0.00,,,0.00,meteohub,2013-08-09 07:13:00,
2013-08-09 02:18:00,58.5,55.6,29.91,West,270,4.0,5.0,90,0.00,,,0.00,meteohub,2013-08-09 07:18:00,
2013-08-09 02:23:00,58.8,55.9,29.91,West,270,2.0,5.0,90,0.00,,,0.00,meteohub,2013-08-09 07:23:00,
2013-08-09 02:29:00,58.5,55.6,29.91,West,270,2.0,4.0,90,0.00,,,0.00,meteohub,2013-08-09 07:29:00,
2013-08-09 02:34:00,57.9,54.7,29.91,West,270,3.0,4.0,89,0.00,,,0.00,meteohub,2013-08-09 07:34:00,
2013-08-09 02:39:00,57.4,54.1,29.92,West,270,4.0,4.0,89,0.00,,,0.00,meteohub,2013-08-09 07:39:00,
2013-08-09 02:44:00,57.4,54.1,29.92,West,270,4.0,4.0,89,0.00,,,0.00,meteohub,2013-08-09 07:44:00,
2013-08-09 02:49:00,57.4,54.5,29.92,West,270,2.0,4.0,90,0.00,,,0.00,meteohub,2013-08-09 07:49:00,
2013-08-09 02:54:00,57.2,54.3,29.92,West,270,2.0,4.0,90,0.00,,,0.00,meteohub,2013-08-09 07:54:00,
2013-08-09 03:00:00,57.0,54.5,29.92,West,270,2.0,4.0,91,0.00,,,0.00,meteohub,2013-08-09 08:00:00,
2013-08-09 03:05:00,57.4,54.5,29.92,West,270,1.0,2.0,90,0.00,,,0.00,meteohub,2013-08-09 08:05:00,
2013-08-09 03:10:00,57.2,54.3,29.93,West,270,0.0,2.0,90,0.00,,,0.00,meteohub,2013-08-09 08:10:00,
2013-08-09 03:16:00,56.7,54.1,29.92,West,270,0.0,2.0,91,0.00,,,0.00,meteohub,2013-08-09 08:16:00,
2013-08-09 03:21:00,56.8,54.3,29.92,West,270,0.0,1.0,91,0.00,,,0.00,meteohub,2013-08-09 08:21:00,
2013-08-09 03:26:00,56.7,54.1,29.93,West,270,0.0,0.0,91,0.00,,,0.00,meteohub,2013-08-09 08:26:00,
2013-08-09 03:31:00,56.5,54.0,29.93,West,270,0.0,0.0,91,0.00,,,0.00,meteohub,2013-08-09 08:31:00,
2013-08-09 03:36:00,56.8,54.3,29.93,West,270,0.0,0.0,91,0.00,,,0.00,meteohub,2013-08-09 08:36:00,
2013-08-09 03:42:00,57.0,54.7,29.93,NW,315,3.0,0.0,92,0.00,,,0.00,meteohub,2013-08-09 08:42:00,
2013-08-09 03:47:00,57.2,54.7,29.93,NW,315,4.0,4.0,91,0.00,,,0.00,meteohub,2013-08-09 08:47:00,
2013-08-09 03:52:00,57.4,54.9,29.92,NW,315,4.0,5.0,91,0.00,,,0.00,meteohub,2013-08-09 08:52:00,
2013-08-09 03:57:00,57.4,54.9,29.92,West,270,4.0,5.0,91,0.00,,,0.00,meteohub,2013-08-09 08:57:00,
2013-08-09 04:02:00,57.4,54.9,29.92,West,270,2.0,5.0,91,0.00,,,0.00,meteohub,2013-08-09 09:02:00,
2013-08-09 04:07:00,57.4,54.9,29.92,West,270,2.0,4.0,91,0.00,,,0.00,meteohub,2013-08-09 09:07:00,
2013-08-09 04:12:00,57.2,54.7,29.91,NW,315,2.0,4.0,91,0.00,,,0.00,meteohub,2013-08-09 09:12:00,
2013-08-09 04:18:00,57.0,54.7,29.91,NW,315,3.0,3.0,92,0.00,,,0.00,meteohub,2013-08-09 09:18:00,
2013-08-09 04:23:00,57.0,54.7,29.92,NW,315,4.0,4.0,92,0.00,,,0.00,meteohub,2013-08-09 09:23:00,
2013-08-09 04:28:00,56.8,54.5,29.92,NW,315,4.0,4.0,92,0.00,,,0.00,meteohub,2013-08-09 09:28:00,
2013-08-09 04:34:00,56.8,54.5,29.92,NW,315,4.0,4.0,92,0.00,,,0.00,meteohub,2013-08-09 09:34:00,
2013-08-09 04:39:00,56.8,54.5,29.92,NW,315,4.0,4.0,92,0.00,,,0.00,meteohub,2013-08-09 09:39:00,
2013-08-09 04:44:00,56.5,54.1,29.92,SW,225,2.0,4.0,92,0.00,,,0.00,meteohub,2013-08-09 09:44:00,
2013-08-09 04:49:00,55.9,53.6,29.92,NW,315,4.0,4.0,92,0.00,,,0.00,meteohub,2013-08-09 09:49:00,
2013-08-09 04:54:00,55.8,53.4,29.92,NW,315,4.0,4.0,92,0.00,,,0.00,meteohub,2013-08-09 09:54:00,
2013-08-09 04:59:00,55.4,52.9,29.92,NW,315,4.0,4.0,91,0.00,,,0.00,meteohub,2013-08-09 09:59:00,
2013-08-09 05:04:00,55.4,53.1,29.92,NW,315,3.0,4.0,92,0.00,,,0.00,meteohub,2013-08-09 10:04:00,
2013-08-09 05:09:00,55.6,53.2,29.92,NW,315,7.0,7.0,92,0.00,,,0.00,meteohub,2013-08-09 10:09:00,
2013-08-09 05:15:00,56.3,54.0,29.92,NW,315,6.0,6.0,92,0.00,,,0.00,meteohub,2013-08-09 10:15:00,
2013-08-09 05:20:00,56.3,54.0,29.92,NW,315,6.0,7.0,92,0.00,,,0.00,meteohub,2013-08-09 10:20:00,
2013-08-09 05:25:00,56.8,54.5,29.93,NW,315,7.0,8.0,92,0.00,,,0.00,meteohub,2013-08-09 10:25:00,
2013-08-09 05:30:00,56.8,54.5,29.93,NW,315,7.0,8.0,92,0.00,,,0.00,meteohub,2013-08-09 10:30:00,
2013-08-09 05:35:00,56.8,54.5,29.93,NW,315,8.0,9.0,92,0.00,,,0.00,meteohub,2013-08-09 10:35:00,
2013-08-09 05:40:00,56.7,54.3,29.93,NW,315,6.0,9.0,92,0.00,,,0.00,meteohub,2013-08-09 10:40:00,
2013-08-09 05:45:00,56.7,54.3,29.93,NW,315,6.0,8.0,92,0.00,,,0.00,meteohub,2013-08-09 10:45:00,
2013-08-09 05:50:00,56.7,54.3,29.93,NW,315,8.0,8.0,92,0.00,,,0.00,meteohub,2013-08-09 10:50:00,
2013-08-09 05:55:00,56.8,54.3,29.94,NW,315,9.0,9.0,91,0.00,,,0.00,meteohub,2013-08-09 10:55:00,
2013-08-09 06:01:00,56.8,54.0,29.94,NW,315,8.0,9.0,90,0.00,,,0.00,meteohub,2013-08-09 11:01:00,
2013-08-09 06:06:00,57.0,53.8,29.94,NW,315,8.0,10.0,89,0.00,,,0.00,meteohub,2013-08-09 11:06:00,
2013-08-09 06:11:00,56.8,53.2,29.94,NW,315,8.0,10.0,88,0.00,,,0.00,meteohub,2013-08-09 11:11:00,
2013-08-09 06:16:00,56.3,52.5,29.94,NW,315,8.0,14.0,87,0.00,,,0.00,meteohub,2013-08-09 11:16:00,
2013-08-09 06:21:00,55.9,52.2,29.94,NW,315,8.0,14.0,87,0.00,,,0.00,meteohub,2013-08-09 11:21:00,
2013-08-09 06:26:00,55.9,52.2,29.94,NW,315,8.0,14.0,87,0.00,,,0.00,meteohub,2013-08-09 11:26:00,
2013-08-09 06:31:00,56.3,52.5,29.94,NW,315,7.0,8.0,87,0.00,,,0.00,meteohub,2013-08-09 11:31:00,
2013-08-09 06:36:00,56.7,52.9,29.94,NW,315,7.0,8.0,87,0.00,,,0.00,meteohub,2013-08-09 11:36:00,
2013-08-09 06:41:00,57.2,53.1,29.94,WNW,293,7.0,8.0,86,0.00,,,0.00,meteohub,2013-08-09 11:41:00,
2013-08-09 06:47:00,57.7,53.6,29.94,NW,315,7.0,8.0,86,0.00,,,0.00,meteohub,2013-08-09 11:47:00,
2013-08-09 06:52:00,58.5,54.3,29.94,NW,315,7.0,8.0,86,0.00,,,0.00,meteohub,2013-08-09 11:52:00,
2013-08-09 06:57:00,59.5,55.0,29.95,NW,315,8.0,9.0,85,0.00,,,0.00,meteohub,2013-08-09 11:57:00,
2013-08-09 07:02:00,60.3,55.8,29.95,NW,315,8.0,9.0,85,0.00,,,0.00,meteohub,2013-08-09 12:02:00,
2013-08-09 07:07:00,60.1,54.5,29.95,NW,315,8.0,9.0,82,0.00,,,0.00,meteohub,2013-08-09 12:07:00,
2013-08-09 07:12:00,60.3,54.3,29.95,NW,315,9.0,9.0,81,0.00,,,0.00,meteohub,2013-08-09 12:12:00,
2013-08-09 07:17:00,60.4,54.5,29.95,NW,315,8.0,11.0,81,0.00,,,0.00,meteohub,2013-08-09 12:17:00,
2013-08-09 07:23:00,61.2,54.9,29.95,NW,315,11.0,11.0,80,0.00,,,0.00,meteohub,2013-08-09 12:23:00,
2013-08-09 07:28:00,61.7,55.0,29.94,North,0,9.0,11.0,79,0.00,,,0.00,meteohub,2013-08-09 12:28:00,
2013-08-09 07:33:00,62.6,55.6,29.94,NW,315,9.0,11.0,78,0.00,,,0.00,meteohub,2013-08-09 12:33:00,
2013-08-09 07:38:00,61.3,54.1,29.94,NW,315,8.0,11.0,77,0.00,,,0.00,meteohub,2013-08-09 12:38:00,
2013-08-09 07:43:00,61.9,54.9,29.95,NW,315,9.0,11.0,78,0.00,,,0.00,meteohub,2013-08-09 12:43:00,
2013-08-09 07:48:00,61.9,54.7,29.95,NW,315,8.0,11.0,77,0.00,,,0.00,meteohub,2013-08-09 12:48:00,
2013-08-09 07:53:00,63.1,55.8,29.96,NW,315,9.0,11.0,77,0.00,,,0.00,meteohub,2013-08-09 12:53:00,
2013-08-09 07:59:00,62.2,54.5,29.96,NW,315,11.0,11.0,76,0.00,,,0.00,meteohub,2013-08-09 12:59:00,
2013-08-09 08:04:00,62.4,55.4,29.96,West,270,9.0,12.0,78,0.00,,,0.00,meteohub,2013-08-09 13:04:00,
2013-08-09 08:09:00,62.4,55.0,29.96,NW,315,11.0,12.0,77,0.00,,,0.00,meteohub,2013-08-09 13:09:00,
2013-08-09 08:14:00,62.8,55.4,29.96,West,270,9.0,12.0,77,0.00,,,0.00,meteohub,2013-08-09 13:14:00,
2013-08-09 08:19:00,63.1,55.4,29.97,West,270,9.0,11.0,76,0.00,,,0.00,meteohub,2013-08-09 13:19:00,
2013-08-09 08:25:00,63.0,55.2,29.97,NW,315,9.0,11.0,76,0.00,,,0.00,meteohub,2013-08-09 13:25:00,
2013-08-09 08:30:00,63.9,56.1,29.97,NW,315,6.0,10.0,76,0.00,,,0.00,meteohub,2013-08-09 13:30:00,
2013-08-09 08:35:00,63.1,54.7,29.97,West,270,8.0,10.0,74,0.00,,,0.00,meteohub,2013-08-09 13:35:00,
2013-08-09 08:40:00,62.4,55.0,29.97,NW,315,8.0,10.0,77,0.00,,,0.00,meteohub,2013-08-09 13:40:00,
2013-08-09 08:45:00,62.6,55.6,29.97,NW,315,7.0,10.0,78,0.00,,,0.00,meteohub,2013-08-09 13:45:00,
2013-08-09 08:50:00,62.6,55.9,29.98,West,270,10.0,10.0,79,0.00,,,0.00,meteohub,2013-08-09 13:50:00,
2013-08-09 08:55:00,63.1,56.5,29.97,NW,315,8.0,10.0,79,0.00,,,0.00,meteohub,2013-08-09 13:55:00,
2013-08-09 09:01:00,63.1,56.5,29.98,NW,315,8.0,10.0,79,0.00,,,0.00,meteohub,2013-08-09 14:01:00,
2013-08-09 09:06:00,63.3,56.7,29.98,West,270,14.0,14.0,79,0.00,,,0.00,meteohub,2013-08-09 14:06:00,
2013-08-09 09:11:00,63.5,56.8,29.98,West,270,11.0,14.0,79,0.00,,,0.00,meteohub,2013-08-09 14:11:00,
2013-08-09 09:16:00,63.9,57.2,29.98,NW,315,9.0,14.0,79,0.00,,,0.00,meteohub,2013-08-09 14:16:00,
2013-08-09 09:21:00,63.7,57.0,29.99,West,270,11.0,14.0,79,0.00,,,0.00,meteohub,2013-08-09 14:21:00,
2013-08-09 09:26:00,63.7,56.7,29.98,West,270,12.0,13.0,78,0.00,,,0.00,meteohub,2013-08-09 14:26:00,
2013-08-09 09:32:00,64.0,57.0,29.99,NW,315,12.0,13.0,78,0.00,,,0.00,meteohub,2013-08-09 14:32:00,
2013-08-09 09:37:00,64.8,57.4,29.99,West,270,11.0,14.0,77,0.00,,,0.00,meteohub,2013-08-09 14:37:00,
2013-08-09 09:42:00,65.3,57.9,29.99,West,270,11.0,14.0,77,0.00,,,0.00,meteohub,2013-08-09 14:42:00,
2013-08-09 09:47:00,65.7,57.9,29.99,West,270,14.0,14.0,76,0.00,,,0.00,meteohub,2013-08-09 14:47:00,
2013-08-09 09:52:00,65.8,57.7,29.99,NW,315,12.0,14.0,75,0.00,,,0.00,meteohub,2013-08-09 14:52:00,
2013-08-09 09:57:00,66.4,57.9,29.99,NW,315,13.0,14.0,74,0.00,,,0.00,meteohub,2013-08-09 14:57:00,
2013-08-09 10:02:00,66.7,58.1,29.99,West,270,14.0,15.0,74,0.00,,,0.00,meteohub,2013-08-09 15:02:00,
2013-08-09 10:07:00,66.6,57.2,30.00,NW,315,12.0,15.0,72,0.00,,,0.00,meteohub,2013-08-09 15:07:00,
2013-08-09 10:12:00,67.6,58.6,29.99,NW,315,13.0,15.0,73,0.00,,,0.00,meteohub,2013-08-09 15:12:00,
2013-08-09 10:17:00,67.8,58.5,29.99,North,0,15.0,16.0,72,0.00,,,0.00,meteohub,2013-08-09 15:17:00,
2013-08-09 10:23:00,68.0,57.9,29.99,North,0,11.0,17.0,70,0.00,,,0.00,meteohub,2013-08-09 15:23:00,
2013-08-09 10:28:00,68.5,57.9,29.99,West,270,13.0,17.0,69,0.00,,,0.00,meteohub,2013-08-09 15:28:00,
2013-08-09 10:33:00,68.5,57.6,29.99,NW,315,15.0,17.0,68,0.00,,,0.00,meteohub,2013-08-09 15:33:00,
2013-08-09 10:38:00,68.7,57.7,30.00,SW,225,13.0,17.0,68,0.00,,,0.00,meteohub,2013-08-09 15:38:00,
2013-08-09 10:43:00,68.9,58.6,29.99,North,0,17.0,20.0,70,0.00,,,0.00,meteohub,2013-08-09 15:43:00,
2013-08-09 10:48:00,68.9,57.6,29.99,West,270,15.0,20.0,67,0.00,,,0.00,meteohub,2013-08-09 15:48:00,
2013-08-09 10:53:00,68.5,56.3,29.99,NW,315,17.0,19.0,65,0.00,,,0.00,meteohub,2013-08-09 15:53:00,
2013-08-09 10:59:00,68.4,56.5,29.99,NW,315,17.0,19.0,66,0.00,,,0.00,meteohub,2013-08-09 15:59:00,
2013-08-09 11:04:00,68.4,55.2,29.99,NW,315,17.0,19.0,63,0.00,,,0.00,meteohub,2013-08-09 16:04:00,
2013-08-09 11:09:00,68.7,54.7,29.99,NW,315,16.0,20.0,61,0.00,,,0.00,meteohub,2013-08-09 16:09:00,
2013-08-09 11:14:00,68.9,54.9,29.99,NW,315,17.0,21.0,61,0.00,,,0.00,meteohub,2013-08-09 16:14:00,
2013-08-09 11:19:00,68.9,53.6,29.99,NW,315,22.0,22.0,58,0.00,,,0.00,meteohub,2013-08-09 16:19:00,
2013-08-09 11:25:00,69.1,53.6,29.99,WNW,293,15.0,21.0,58,0.00,,,0.00,meteohub,2013-08-09 16:25:00,
2013-08-09 11:30:00,69.1,52.2,29.99,NW,315,23.0,23.0,55,0.00,,,0.00,meteohub,2013-08-09 16:30:00,
2013-08-09 11:35:00,69.1,52.2,29.98,NW,315,23.0,23.0,55,0.00,,,0.00,meteohub,2013-08-09 16:35:00,
2013-08-09 11:40:00,69.3,52.9,29.97,NW,315,23.0,23.0,56,0.00,,,0.00,meteohub,2013-08-09 16:40:00,
2013-08-09 11:45:00,69.8,52.9,29.98,North,0,20.0,23.0,55,0.00,,,0.00,meteohub,2013-08-09 16:45:00,
2013-08-09 11:50:00,69.6,53.2,29.97,North,0,22.0,23.0,56,0.00,,,0.00,meteohub,2013-08-09 16:50:00,
2013-08-09 11:56:00,69.6,53.2,29.98,North,0,19.0,23.0,56,0.00,,,0.00,meteohub,2013-08-09 16:56:00,
2013-08-09 12:01:00,69.8,52.0,29.98,NW,315,21.0,24.0,53,0.00,,,0.00,meteohub,2013-08-09 17:01:00,
2013-08-09 12:06:00,69.4,51.6,29.98,North,0,20.0,25.0,53,0.00,,,0.00,meteohub,2013-08-09 17:06:00,
2013-08-09 12:11:00,69.4,52.2,29.98,WNW,293,18.0,25.0,54,0.00,,,0.00,meteohub,2013-08-09 17:11:00,
2013-08-09 12:16:00,70.2,52.7,29.98,NW,315,25.0,25.0,54,0.00,,,0.00,meteohub,2013-08-09 17:16:00,
2013-08-09 12:22:00,70.3,53.4,29.98,NW,315,19.0,25.0,55,0.00,,,0.00,meteohub,2013-08-09 17:22:00,
2013-08-09 12:27:00,70.2,52.2,29.98,North,0,17.0,25.0,53,0.00,,,0.00,meteohub,2013-08-09 17:27:00,
2013-08-09 12:32:00,70.0,52.0,29.98,North,0,21.0,25.0,53,0.00,,,0.00,meteohub,2013-08-09 17:32:00,
2013-08-09 12:37:00,70.2,51.3,29.98,NW,315,20.0,23.0,51,0.00,,,0.00,meteohub,2013-08-09 17:37:00,
2013-08-09 12:43:00,70.3,51.4,29.98,North,0,18.0,24.0,51,0.00,,,0.00,meteohub,2013-08-09 17:43:00,
2013-08-09 12:48:00,70.7,51.6,29.98,WNW,293,20.0,24.0,51,0.00,,,0.00,meteohub,2013-08-09 17:48:00,
2013-08-09 12:53:00,70.9,52.3,29.98,WNW,293,19.0,24.0,52,0.00,,,0.00,meteohub,2013-08-09 17:53:00,
2013-08-09 12:58:00,70.7,51.1,29.98,NW,315,21.0,23.0,50,0.00,,,0.00,meteohub,2013-08-09 17:58:00,
2013-08-09 13:04:00,70.3,50.9,29.98,NW,315,20.0,23.0,50,0.00,,,0.00,meteohub,2013-08-09 18:04:00,
2013-08-09 13:09:00,70.9,51.3,29.98,WNW,293,21.0,23.0,50,0.00,,,0.00,meteohub,2013-08-09 18:09:00,
2013-08-09 13:14:00,71.4,52.9,29.98,NW,315,14.0,23.0,52,0.00,,,0.00,meteohub,2013-08-09 18:14:00,
2013-08-09 13:19:00,71.6,52.0,29.99,North,0,21.0,21.0,50,0.00,,,0.00,meteohub,2013-08-09 18:19:00,
2013-08-09 13:24:00,71.4,51.8,29.98,NW,315,15.0,26.0,50,0.00,,,0.00,meteohub,2013-08-09 18:24:00,
2013-08-09 13:29:00,72.1,52.0,29.98,NW,315,19.0,26.0,49,0.00,,,0.00,meteohub,2013-08-09 18:29:00,
2013-08-09 13:35:00,72.0,51.8,29.98,NW,315,21.0,26.0,49,0.00,,,0.00,meteohub,2013-08-09 18:35:00,
2013-08-09 13:40:00,72.3,52.2,29.97,NW,315,17.0,21.0,49,0.00,,,0.00,meteohub,2013-08-09 18:40:00,
2013-08-09 13:45:00,72.3,51.4,29.98,North,0,18.0,23.0,48,0.00,,,0.00,meteohub,2013-08-09 18:45:00,
2013-08-09 13:51:00,72.1,52.0,29.97,NW,315,18.0,23.0,49,0.00,,,0.00,meteohub,2013-08-09 18:51:00,
2013-08-09 13:56:00,72.3,52.2,29.97,North,0,17.0,23.0,49,0.00,,,0.00,meteohub,2013-08-09 18:56:00,
2013-08-09 14:01:00,72.0,51.8,29.97,NW,315,17.0,20.0,49,0.00,,,0.00,meteohub,2013-08-09 19:01:00,
2013-08-09 14:06:00,72.1,52.0,29.97,North,0,17.0,21.0,49,0.00,,,0.00,meteohub,2013-08-09 19:06:00,
2013-08-09 14:12:00,72.9,52.5,29.98,NW,315,17.0,21.0,49,0.00,,,0.00,meteohub,2013-08-09 19:12:00,
2013-08-09 14:17:00,72.9,52.5,29.97,North,0,13.0,21.0,49,0.00,,,0.00,meteohub,2013-08-09 19:17:00,
2013-08-09 14:22:00,72.5,52.3,29.98,West,270,17.0,18.0,49,0.00,,,0.00,meteohub,2013-08-09 19:22:00,
2013-08-09 14:27:00,72.1,52.0,29.97,NW,315,16.0,18.0,49,0.00,,,0.00,meteohub,2013-08-09 19:27:00,
2013-08-09 14:32:00,72.1,52.0,29.98,West,270,16.0,22.0,49,0.00,,,0.00,meteohub,2013-08-09 19:32:00,
2013-08-09 14:37:00,72.3,52.2,29.98,West,270,19.0,22.0,49,0.00,,,0.00,meteohub,2013-08-09 19:37:00,
2013-08-09 14:42:00,72.0,51.8,29.98,West,270,21.0,22.0,49,0.00,,,0.00,meteohub,2013-08-09 19:42:00,
2013-08-09 14:47:00,72.5,51.6,29.97,West,270,15.0,22.0,48,0.00,,,0.00,meteohub,2013-08-09 19:47:00,
2013-08-09 14:52:00,72.3,51.4,29.97,NW,315,17.0,22.0,48,0.00,,,0.00,meteohub,2013-08-09 19:52:00,
2013-08-09 14:57:00,73.0,52.7,29.96,NW,315,17.0,22.0,49,0.00,,,0.00,meteohub,2013-08-09 19:57:00,
2013-08-09 15:03:00,73.8,52.9,29.97,NW,315,18.0,18.0,48,0.00,,,0.00,meteohub,2013-08-09 20:03:00,
2013-08-09 15:08:00,73.0,52.7,29.97,NW,315,17.0,20.0,49,0.00,,,0.00,meteohub,2013-08-09 20:08:00,
2013-08-09 15:13:00,73.6,52.2,29.97,North,0,16.0,20.0,47,0.00,,,0.00,meteohub,2013-08-09 20:13:00,
2013-08-09 15:18:00,73.4,51.4,29.97,NW,315,18.0,20.0,46,0.00,,,0.00,meteohub,2013-08-09 20:18:00,
2013-08-09 15:23:00,73.8,53.4,29.97,North,0,15.0,20.0,49,0.00,,,0.00,meteohub,2013-08-09 20:23:00,
2013-08-09 15:28:00,74.7,53.1,29.97,West,270,15.0,18.0,47,0.00,,,0.00,meteohub,2013-08-09 20:28:00,
2013-08-09 15:33:00,74.7,53.1,29.98,NW,315,17.0,18.0,47,0.00,,,0.00,meteohub,2013-08-09 20:33:00,
2013-08-09 15:38:00,74.5,52.9,29.98,NW,315,17.0,17.0,47,0.00,,,0.00,meteohub,2013-08-09 20:38:00,
2013-08-09 15:43:00,75.0,53.4,29.98,NW,315,20.0,20.0,47,0.00,,,0.00,meteohub,2013-08-09 20:43:00,
2013-08-09 15:49:00,73.4,52.0,29.98,NW,315,13.0,21.0,47,0.00,,,0.00,meteohub,2013-08-09 20:49:00,
2013-08-09 15:54:00,74.8,53.2,29.98,North,0,15.0,21.0,47,0.00,,,0.00,meteohub,2013-08-09 20:54:00,
2013-08-09 15:59:00,75.2,51.8,29.98,West,270,13.0,21.0,44,0.00,,,0.00,meteohub,2013-08-09 20:59:00,
2013-08-09 16:04:00,75.4,52.0,29.98,West,270,18.0,20.0,44,0.00,,,0.00,meteohub,2013-08-09 21:04:00,
2013-08-09 16:09:00,76.1,53.2,29.98,NW,315,17.0,23.0,45,0.00,,,0.00,meteohub,2013-08-09 21:09:00,
2013-08-09 16:14:00,73.9,51.8,29.98,NW,315,14.0,23.0,46,0.00,,,0.00,meteohub,2013-08-09 21:14:00,
2013-08-09 16:19:00,75.2,51.1,29.98,NW,315,17.0,23.0,43,0.00,,,0.00,meteohub,2013-08-09 21:19:00,
2013-08-09 16:24:00,75.4,52.0,29.97,NW,315,19.0,23.0,44,0.00,,,0.00,meteohub,2013-08-09 21:24:00,
2013-08-09 16:30:00,75.4,51.3,29.97,NW,315,15.0,23.0,43,0.00,,,0.00,meteohub,2013-08-09 21:30:00,
2013-08-09 16:35:00,75.6,51.4,29.98,NW,315,21.0,22.0,43,0.00,,,0.00,meteohub,2013-08-09 21:35:00,
2013-08-09 16:40:00,75.6,51.4,29.98,NW,315,16.0,22.0,43,0.00,,,0.00,meteohub,2013-08-09 21:40:00,
2013-08-09 16:45:00,74.3,50.9,29.98,NW,315,14.0,21.0,44,0.00,,,0.00,meteohub,2013-08-09 21:45:00,
2013-08-09 16:50:00,75.0,52.2,29.98,NW,315,13.0,21.0,45,0.00,,,0.00,meteohub,2013-08-09 21:50:00,
2013-08-09 16:55:00,74.3,52.7,29.98,NW,315,12.0,17.0,47,0.00,,,0.00,meteohub,2013-08-09 21:55:00,
2013-08-09 17:01:00,73.4,51.4,29.98,NW,315,19.0,19.0,46,0.00,,,0.00,meteohub,2013-08-09 22:01:00,
2013-08-09 17:06:00,73.4,51.4,29.98,NW,315,19.0,19.0,46,0.00,,,0.00,meteohub,2013-08-09 22:06:00,
2013-08-09 17:11:00,72.7,51.8,29.98,North,0,17.0,23.0,48,0.00,,,0.00,meteohub,2013-08-09 22:11:00,
2013-08-09 17:16:00,73.6,52.2,29.98,NW,315,12.0,23.0,47,0.00,,,0.00,meteohub,2013-08-09 22:16:00,
2013-08-09 17:21:00,75.4,52.0,29.98,North,0,11.0,23.0,44,0.00,,,0.00,meteohub,2013-08-09 22:21:00,
2013-08-09 17:26:00,75.4,53.2,29.99,NW,315,18.0,19.0,46,0.00,,,0.00,meteohub,2013-08-09 22:26:00,
2013-08-09 17:31:00,73.4,50.7,29.98,NW,315,16.0,18.0,45,0.00,,,0.00,meteohub,2013-08-09 22:31:00,
2013-08-09 17:36:00,73.6,52.2,29.98,West,270,15.0,18.0,47,0.00,,,0.00,meteohub,2013-08-09 22:36:00,
2013-08-09 17:41:00,74.7,51.3,29.98,West,270,16.0,18.0,44,0.00,,,0.00,meteohub,2013-08-09 22:41:00,
2013-08-09 17:47:00,74.5,51.8,29.99,West,270,12.0,18.0,45,0.00,,,0.00,meteohub,2013-08-09 22:47:00,
2013-08-09 17:52:00,75.0,51.6,29.99,NW,315,16.0,17.0,44,0.00,,,0.00,meteohub,2013-08-09 22:52:00,
2013-08-09 17:57:00,75.0,51.6,29.98,NW,315,17.0,21.0,44,0.00,,,0.00,meteohub,2013-08-09 22:57:00,
2013-08-09 18:02:00,74.8,52.2,29.98,West,270,15.0,21.0,45,0.00,,,0.00,meteohub,2013-08-09 23:02:00,
2013-08-09 18:07:00,74.3,51.6,29.99,NW,315,17.0,18.0,45,0.00,,,0.00,meteohub,2013-08-09 23:07:00,
2013-08-09 18:12:00,73.9,51.3,29.99,West,270,16.0,19.0,45,0.00,,,0.00,meteohub,2013-08-09 23:12:00,
2013-08-09 18:18:00,74.1,51.4,29.98,West,270,13.0,19.0,45,0.00,,,0.00,meteohub,2013-08-09 23:18:00,
2013-08-09 18:23:00,74.1,52.0,29.98,West,270,11.0,19.0,46,0.00,,,0.00,meteohub,2013-08-09 23:23:00,
2013-08-09 18:28:00,74.3,51.6,29.99,NW,315,13.0,17.0,45,0.00,,,0.00,meteohub,2013-08-09 23:28:00,
2013-08-09 18:33:00,74.5,52.3,29.98,NW,315,15.0,15.0,46,0.00,,,0.00,meteohub,2013-08-09 23:33:00,
2013-08-09 18:38:00,73.8,51.6,29.98,West,270,15.0,15.0,46,0.00,,,0.00,meteohub,2013-08-09 23:38:00,
2013-08-09 18:43:00,73.4,52.0,29.99,West,270,13.0,15.0,47,0.00,,,0.00,meteohub,2013-08-09 23:43:00,
2013-08-09 18:48:00,73.6,52.2,29.98,NW,315,11.0,15.0,47,0.00,,,0.00,meteohub,2013-08-09 23:48:00,
2013-08-09 18:53:00,73.0,52.2,29.98,West,270,12.0,15.0,48,0.00,,,0.00,meteohub,2013-08-09 23:53:00,
2013-08-09 18:58:00,73.2,52.3,29.98,NW,315,11.0,15.0,48,0.00,,,0.00,meteohub,2013-08-09 23:58:00,
2013-08-09 19:04:00,71.8,51.6,29.99,NW,315,10.0,15.0,49,0.00,,,0.00,meteohub,2013-08-10 00:04:00,
2013-08-09 19:09:00,72.1,52.0,29.99,NW,315,11.0,15.0,49,0.00,,,0.00,meteohub,2013-08-10 00:09:00,
2013-08-09 19:14:00,73.0,53.2,29.99,West,270,10.0,13.0,50,0.00,,,0.00,meteohub,2013-08-10 00:14:00,
2013-08-09 19:19:00,72.9,52.5,29.99,NW,315,8.0,12.0,49,0.00,,,0.00,meteohub,2013-08-10 00:19:00,
2013-08-09 19:24:00,73.2,52.9,29.99,NW,315,8.0,12.0,49,0.00,,,0.00,meteohub,2013-08-10 00:24:00,
2013-08-09 19:29:00,72.1,52.5,29.99,NW,315,8.0,11.0,50,0.00,,,0.00,meteohub,2013-08-10 00:29:00,
2013-08-09 19:34:00,71.4,52.9,29.99,West,270,7.0,11.0,52,0.00,,,0.00,meteohub,2013-08-10 00:34:00,
2013-08-09 19:40:00,71.1,53.6,29.99,NW,315,6.0,10.0,54,0.00,,,0.00,meteohub,2013-08-10 00:40:00,
2013-08-09 19:45:00,71.1,54.1,29.99,NW,315,6.0,9.0,55,0.00,,,0.00,meteohub,2013-08-10 00:45:00,
2013-08-09 19:50:00,70.9,54.0,29.99,NW,315,4.0,8.0,55,0.00,,,0.00,meteohub,2013-08-10 00:50:00,
2013-08-09 19:55:00,71.4,55.4,29.99,North,0,4.0,6.0,57,0.00,,,0.00,meteohub,2013-08-10 00:55:00,
2013-08-09 20:00:00,71.2,55.8,29.99,North,0,4.0,6.0,58,0.00,,,0.00,meteohub,2013-08-10 01:00:00,
2013-08-09 20:05:00,70.9,55.8,29.99,NW,315,4.0,4.0,59,0.00,,,0.00,meteohub,2013-08-10 01:05:00,
2013-08-09 20:10:00,71.8,56.1,29.99,North,0,3.0,4.0,58,0.00,,,0.00,meteohub,2013-08-10 01:10:00,
2013-08-09 20:15:00,72.7,57.0,29.99,North,0,3.0,4.0,58,0.00,,,0.00,meteohub,2013-08-10 01:15:00,
2013-08-09 20:20:00,72.0,55.4,29.99,North,0,3.0,4.0,56,0.00,,,0.00,meteohub,2013-08-10 01:20:00,
2013-08-09 20:25:00,70.7,55.2,30.00,North,0,2.0,27.0,58,0.00,,,0.00,meteohub,2013-08-10 01:25:00,
2013-08-09 20:30:00,69.6,55.0,30.00,North,0,2.0,27.0,60,0.00,,,0.00,meteohub,2013-08-10 01:30:00,
2013-08-09 20:36:00,68.7,54.7,30.00,NW,315,3.0,27.0,61,0.00,,,0.00,meteohub,2013-08-10 01:36:00,
2013-08-09 20:41:00,67.8,54.3,30.00,North,0,3.0,3.0,62,0.00,,,0.00,meteohub,2013-08-10 01:41:00,
2013-08-09 20:46:00,67.1,54.1,30.01,NW,315,2.0,3.0,63,0.00,,,0.00,meteohub,2013-08-10 01:46:00,
2013-08-09 20:51:00,66.4,53.4,30.00,NW,315,3.0,3.0,63,0.00,,,0.00,meteohub,2013-08-10 01:51:00,
2013-08-09 20:56:00,66.0,54.0,30.01,North,0,2.0,4.0,65,0.00,,,0.00,meteohub,2013-08-10 01:56:00,
2013-08-09 21:01:00,65.7,54.0,30.00,North,0,2.0,4.0,66,0.00,,,0.00,meteohub,2013-08-10 02:01:00,
2013-08-09 21:06:00,65.7,54.3,30.01,NW,315,3.0,3.0,67,0.00,,,0.00,meteohub,2013-08-10 02:06:00,
2013-08-09 21:11:00,65.5,54.3,30.00,North,0,3.0,3.0,67,0.00,,,0.00,meteohub,2013-08-10 02:11:00,
2013-08-09 21:16:00,65.3,54.5,30.01,North,0,2.0,3.0,68,0.00,,,0.00,meteohub,2013-08-10 02:16:00,
2013-08-09 21:22:00,65.3,54.5,30.01,North,0,2.0,3.0,68,0.00,,,0.00,meteohub,2013-08-10 02:22:00,
2013-08-09 21:27:00,64.9,54.9,30.01,North,0,3.0,3.0,70,0.00,,,0.00,meteohub,2013-08-10 02:27:00,
2013-08-09 21:32:00,64.8,54.7,30.01,North,0,3.0,3.0,70,0.00,,,0.00,meteohub,2013-08-10 02:32:00,
2013-08-09 21:37:00,64.8,54.7,30.01,North,0,3.0,3.0,70,0.00,,,0.00,meteohub,2013-08-10 02:37:00,
2013-08-09 21:42:00,64.8,54.7,30.01,North,0,4.0,4.0,70,0.00,,,0.00,meteohub,2013-08-10 02:42:00,
2013-08-09 21:47:00,64.9,55.4,30.01,North,0,4.0,4.0,71,0.00,,,0.00,meteohub,2013-08-10 02:47:00,
2013-08-09 21:52:00,64.8,55.2,30.02,North,0,4.0,4.0,71,0.00,,,0.00,meteohub,2013-08-10 02:52:00,
2013-08-09 21:57:00,64.4,54.9,30.02,North,0,4.0,4.0,71,0.00,,,0.00,meteohub,2013-08-10 02:57:00,
2013-08-09 22:02:00,64.0,54.5,30.01,NW,315,3.0,4.0,71,0.00,,,0.00,meteohub,2013-08-10 03:02:00,
2013-08-09 22:08:00,63.9,54.3,30.02,NW,315,4.0,4.0,71,0.00,,,0.00,meteohub,2013-08-10 03:08:00,
2013-08-09 22:13:00,63.3,53.8,30.02,NW,315,4.0,4.0,71,0.00,,,0.00,meteohub,2013-08-10 03:13:00,
2013-08-09 22:18:00,63.1,53.6,30.01,NW,315,4.0,4.0,71,0.00,,,0.00,meteohub,2013-08-10 03:18:00,
2013-08-09 22:23:00,62.8,53.6,30.02,NW,315,4.0,4.0,72,0.00,,,0.00,meteohub,2013-08-10 03:23:00,
2013-08-09 22:28:00,62.8,54.0,30.01,NW,315,4.0,4.0,73,0.00,,,0.00,meteohub,2013-08-10 03:28:00,
2013-08-09 22:33:00,62.4,54.0,30.02,NW,315,4.0,4.0,74,0.00,,,0.00,meteohub,2013-08-10 03:33:00,
2013-08-09 22:38:00,62.2,53.8,30.02,NW,315,4.0,4.0,74,0.00,,,0.00,meteohub,2013-08-10 03:38:00,
2013-08-09 22:44:00,62.2,53.8,30.01,West,270,4.0,4.0,74,0.00,,,0.00,meteohub,2013-08-10 03:44:00,
2013-08-09 22:49:00,62.6,53.8,30.02,West,270,3.0,4.0,73,0.00,,,0.00,meteohub,2013-08-10 03:49:00,
2013-08-09 22:54:00,62.2,53.8,30.02,West,270,2.0,4.0,74,0.00,,,0.00,meteohub,2013-08-10 03:54:00,
2013-08-09 22:59:00,61.7,53.2,30.02,West,270,2.0,4.0,74,0.00,,,0.00,meteohub,2013-08-10 03:59:00,
2013-08-09 23:01:00,61.5,53.2,30.02,West,270,2.0,4.0,74,0.00,,,0.00,meteohub,2013-08-10 04:01:00,
2013-08-09 23:02:00,61.5,53.2,30.02,West,270,2.0,4.0,74,0.00,,,0.00,meteohub,2013-08-10 04:02:00,
2013-08-09 23:05:00,61.2,52.9,30.02,NW,315,2.0,4.0,74,0.00,,,0.00,meteohub,2013-08-10 04:05:00,
2013-08-09 23:10:00,60.8,52.9,30.02,NW,315,4.0,4.0,75,0.00,,,0.00,meteohub,2013-08-10 04:10:00,
2013-08-09 23:16:00,60.6,53.1,30.02,NW,315,3.0,4.0,76,0.00,,,0.00,meteohub,2013-08-10 04:16:00,
2013-08-09 23:21:00,60.6,53.4,30.03,West,270,4.0,4.0,77,0.00,,,0.00,meteohub,2013-08-10 04:21:00,
2013-08-09 23:26:00,61.2,54.3,30.02,West,270,4.0,4.0,78,0.00,,,0.00,meteohub,2013-08-10 04:26:00,
2013-08-09 23:31:00,61.7,54.9,30.02,West,270,3.0,4.0,78,0.00,,,0.00,meteohub,2013-08-10 04:31:00,
2013-08-09 23:36:00,61.3,54.1,30.02,West,270,2.0,4.0,77,0.00,,,0.00,meteohub,2013-08-10 04:36:00,
2013-08-09 23:41:00,60.6,53.4,30.03,NW,315,2.0,4.0,77,0.00,,,0.00,meteohub,2013-08-10 04:41:00,
2013-08-09 23:46:00,60.1,52.9,30.03,NW,315,4.0,4.0,77,0.00,,,0.00,meteohub,2013-08-10 04:46:00,
2013-08-09 23:52:00,59.7,52.9,30.03,NW,315,4.0,4.0,78,0.00,,,0.00,meteohub,2013-08-10 04:52:00,
2013-08-09 23:57:00,59.7,52.9,30.02,NW,315,4.0,4.0,78,0.00,,,0.00,meteohub,2013-08-10 04:57:00,